ADDS TAF Data INFO
IDs: Format: Raw Decoded Include METARs

Data at: 2118 UTC 17 Jul 2018

Region: TOP
Region: TOP
KATL 171950Z 1720/1824 32007KT P6SM SCT040 BKN250
  TEMPO 1721/1801 VRB12G22KT 3SM TSRA BKN020CB
  FM180200 31005KT P6SM FEW045 SCT070
  FM181400 35006KT P6SM SCT035 SCT250
  FM181700 33008KT P6SM SCT045 SCT250


KBOS 172117Z 1721/1824 VRB04KT 1SM +TSRA OVC020CB
  FM172300 21008KT 3SM SHRA OVC035
  FM180100 21005KT P6SM OVC040
  FM180300 23004KT P6SM OVC060
  FM181200 33007KT P6SM BKN090
  FM181300 34007KT P6SM SCT110
  FM182100 04005KT P6SM FEW060


KBWI 172050Z 1721/1824 VRB04KT P6SM VCSH SCT030 BKN040
  FM172200 31004KT P6SM BKN050
  FM180700 33006G15KT P6SM FEW250
  FM181800 33008KT P6SM FEW050


KCLE 172105Z 1721/1824 35008KT P6SM SCT060 BKN200

KCLT 172000Z 1720/1824 24010KT P6SM SCT040 BKN250
  TEMPO 1720/1724 30015G25KT 4SM -TSRA OVC025CB
  FM180200 33004KT P6SM BKN045
  FM180800 36003KT P6SM FEW045 BKN250
  FM181400 03007KT P6SM SCT100 BKN250


KCVG 172101Z 1721/1824 34012G18KT P6SM FEW050
  FM172300 35005KT P6SM SKC
  FM181600 03006KT P6SM FEW050


KDCA 172050Z 1721/1824 VRB08KT P6SM VCSH SCT030 BKN050
  FM172200 30005KT P6SM BKN050
  FM180700 33007G15KT P6SM FEW250
  FM181800 33006KT P6SM FEW050


KDEN 172104Z 1721/1824 10005KT P6SM SCT080 BKN120
  FM172200 13009KT P6SM SCT050 SCT120
  TEMPO 1723/1802 VRB20G30KT -TSRA BKN080CB
  FM180400 17009KT P6SM FEW080 SCT120 BKN200
  FM180600 20009KT P6SM FEW120
  FM181300 36008KT P6SM FEW200


KDFW 172050Z 1721/1824 19009KT P6SM FEW250

KDTW 172105Z 1721/1824 34011G19KT P6SM SCT070
  FM180200 05005KT P6SM FEW050
  FM180700 35005KT P6SM SCT040
  FM181200 35005KT P6SM FEW050


KEWR 172037Z 1721/1824 27008KT 5SM -TSRA BKN050CB
  TEMPO 1721/1722 3SM SHRA SCT015 BKN040
  FM172200 26006KT P6SM VCSH SCT040 BKN070
  FM180200 32006KT P6SM VCSH SCT070 BKN120
  FM180700 34006KT P6SM FEW050 SCT120
  FM181200 35010KT P6SM SCT250
  FM181800 35012KT P6SM SKC


KFLL 172111Z 1721/1824 14012KT P6SM VCTS SCT050CB BKN150
  FM172300 19004KT P6SM FEW030 SCT080 BKN120
  FM180100 22005KT P6SM FEW030 SCT250
  FM181800 17010KT P6SM FEW030 SCT050


KIAD 172050Z 1721/1824 29006KT P6SM VCSH SCT030 BKN050
  FM172200 32005KT P6SM SCT050
  FM180700 33006G15KT P6SM FEW250
  FM181800 33007KT P6SM FEW050


KIAH 172100Z 1721/1824 22007KT P6SM FEW050
  FM172300 18008KT P6SM SCT050
  FM180500 22005KT P6SM FEW250
  FM181000 24004KT P6SM SCT015
  FM181500 25007KT P6SM SCT025


KJFK 172053Z 1721/1824 VRB05KT 5SM -TSRA SCT015 SCT025 OVC050CB
  TEMPO 1721/1722 3SM SHRA BR SCT015 BKN025
  FM172200 25009KT P6SM VCSH BKN050
  FM180300 32006KT P6SM VCSH SCT050 BKN120
  FM180700 34006KT P6SM FEW050 SCT120
  FM181200 35010KT P6SM SCT250
  FM181800 35012KT P6SM SKC


KLAS 172107Z 1721/1824 05006KT P6SM FEW120 SCT250
  FM172200 10007KT P6SM SCT120 SCT250
  FM180300 16011KT P6SM SCT120 BKN250
  FM180700 19010KT P6SM SCT120 BKN250


KLAX 172057Z 1721/1824 27012KT P6SM SCT012
  TEMPO 1721/1722 BKN012
  FM180300 VRB03KT P6SM BKN200
  FM180700 VRB03KT P6SM BKN008
  FM181200 VRB03KT P6SM BKN010
  FM181700 26006KT P6SM BKN100
  FM182000 26012KT P6SM BKN100


KLGA 172056Z 1721/1824 VRB05KT 6SM -TSRA FEW015 BKN050CB
  TEMPO 1721/1722 3SM SHRA SCT015 BKN035
  FM172200 24006KT P6SM VCSH BKN050
  FM180300 32006KT P6SM VCSH SCT050 BKN120
  FM180700 34006KT P6SM FEW050 SCT120
  FM181200 36010KT P6SM SCT250
  FM181800 35012KT P6SM SKC


KMCO 172116Z 1721/1824 28008KT P6SM VCTS FEW025 SCT060CB BKN250
  FM180000 22005KT P6SM FEW050 SCT080
  FM181400 20005KT P6SM SCT025
  FM181900 23008KT P6SM VCTS SCT050CB


KMDW 172053Z 1721/1824 06011G17KT P6SM FEW050 SCT300
  FM180000 04005KT P6SM FEW300
  FM181600 05009KT P6SM FEW300


KMEM 172055Z 1721/1824 25004KT P6SM VCTS SCT045CB BKN250
  FM180300 07004KT P6SM SCT035 BKN250
  FM181600 07006KT P6SM VCTS BKN040CB


KMIA 172111Z 1721/1824 17010KT P6SM VCSH FEW035 BKN040 BKN150
  FM172300 20003KT P6SM FEW030 SCT050 BKN200
  FM181800 19008KT P6SM FEW030 SCT060


KMSP 172021Z 1720/1824 VRB03KT P6SM FEW060
  FM180400 00000KT P6SM SKC
  FM181400 12004KT P6SM SKC
  FM181800 15007KT P6SM SCT250


KORD 172053Z 1721/1824 05011G17KT P6SM FEW050 SCT300
  FM180100 04005KT P6SM FEW300
  FM181600 06009KT P6SM FEW300


KPDX 172057Z 1721/1818 30006KT P6SM SKC
  FM180000 30012KT P6SM SKC
  FM180500 31007KT P6SM SKC
  FM181100 31004KT P6SM BKN015
  FM181300 33004KT P6SM OVC015


KPHL 172057Z 1721/1824 30012KT P6SM -SHRA SCT040 BKN120
  FM172300 23005KT P6SM VCSH BKN050
  TEMPO 1723/1801 4SM SHRA BKN035
  FM180100 25005KT 6SM HZ VCSH BKN050
  FM180300 36006KT P6SM SCT050
  FM181200 33010KT P6SM SKC


KPHX 172057Z 1721/1824 VRB04KT P6SM FEW080 SCT250
  FM172200 25007KT P6SM SCT110 BKN250
  FM180500 13015G30KT 6SM BLDU SCT080 BKN120
  FM180800 11007KT P6SM SCT120 BKN200
  FM181900 26006KT P6SM FEW150 SCT250


KPIT 172047Z 1721/1824 33015G23KT P6SM SCT050
  FM172300 VRB05KT P6SM SKC


KSAN 172013Z 1720/1824 29010KT P6SM BKN015
  FM180000 28007KT P6SM SCT015 SCT150
  FM180500 VRB05KT P6SM BKN015
  FM181600 VRB04KT P6SM SCT015 SCT200
  FM181900 28010KT P6SM SCT200


KSEA 171748Z 1718/1824 19009KT P6SM FEW200
  FM180400 20009KT P6SM SCT200
  TEMPO 1809/1810 BKN035
  FM181000 20009KT P6SM OVC030
  TEMPO 1810/1812 BKN007 OVC020
  FM181200 19008KT P6SM OVC008
  FM181800 21009KT P6SM OVC015


KSFO 172100Z 1721/1824 30018KT P6SM BKN200
  FM180400 30010KT P6SM FEW010 SCT250
  FM181000 28007KT P6SM SCT012
  FM181200 28005KT P6SM OVC009
  FM181630 29003KT P6SM SCT014
  FM181900 32012KT P6SM FEW015


KSLC 172106Z 1721/1824 32007KT P6SM SCT080
  FM180300 16006KT P6SM SKC
  FM181800 32007KT P6SM SKC


KSTL 171723Z 1718/1824 07005KT P6SM FEW250
  FM181500 11006KT P6SM FEW050 SCT150


KTPA 172103Z 1721/1824 26010KT P6SM SCT040 BKN200
  FM180200 22005KT P6SM SCT030 BKN120
  FM181000 23006KT P6SM VCSH SCT025 BKN120
  FM181400 23010KT 6SM SHRA VCTS SCT030CB BKN040 BKN120
  FM181700 23011KT P6SM VCTS SCT035CB BKN120